Time,TemperatureF,DewpointF,PressureIn,WindDirection,WindDirectionDegrees,WindSpeedMPH,WindSpeedGustMPH,Humidity,HourlyPrecipIn,Conditions,Clouds,dailyrainin,SoftwareType,DateUTC
2013-06-22 00:02:00,62.4,56.9,29.85,NW,315,3.8,8.1,82,0.00,CLR,SKC,0.09,WeatherDisplay:10.37,2013-06-21 23:02:00,
2013-06-22 00:07:00,62.4,56.9,29.85,NW,315,3.8,8.1,82,0.00,CLR,SKC,0.09,WeatherDisplay:10.37,2013-06-21 23:07:00,
2013-06-22 00:12:00,62.1,56.2,29.85,North,0,1.6,6.9,81,0.00,RA,SKC,0.00,WeatherDisplay:10.37,2013-06-21 23:12:00,
2013-06-22 00:17:00,61.9,56.7,29.85,SE,135,1.6,6.9,83,0.00,RA,SKC,0.00,WeatherDisplay:10.37,2013-06-21 23:17:00,
2013-06-22 00:22:00,61.9,57.0,29.85,West,270,0.7,4.6,84,0.00,CLR,SKC,0.00,WeatherDisplay:10.37,2013-06-21 23:22:00,
2013-06-22 00:27:00,61.9,57.0,29.85,West,270,0.7,4.6,84,0.00,CLR,SKC,0.00,WeatherDisplay:10.37,2013-06-21 23:27:00,
2013-06-22 00:32:00,61.7,57.8,29.85,SE,135,0.7,3.5,87,0.00,CLR,SKC,0.00,WeatherDisplay:10.37,2013-06-21 23:32:00,
2013-06-22 00:37:00,61.7,57.8,29.85,SE,135,0.7,3.5,87,0.00,CLR,SKC,0.00,WeatherDisplay:10.37,2013-06-21 23:37:00,
2013-06-22 00:42:00,61.0,58.3,29.84,SE,135,3.8,7.6,91,0.00,CLR,SKC,0.00,WeatherDisplay:10.37,2013-06-21 23:42:00,
2013-06-22 00:47:00,61.0,58.3,29.84,SE,135,3.8,7.6,91,0.00,CLR,SKC,0.00,WeatherDisplay:10.37,2013-06-21 23:47:00,
2013-06-22 00:52:00,60.3,57.6,29.84,SE,135,4.5,9.2,91,0.00,CLR,SKC,0.00,WeatherDisplay:10.37,2013-06-21 23:52:00,
2013-06-22 00:57:00,60.3,57.6,29.84,SE,135,4.5,9.2,91,0.00,CLR,SKC,0.00,WeatherDisplay:10.37,2013-06-21 23:57:00,
2013-06-22 01:02:00,59.9,57.3,29.84,SE,135,3.8,8.1,91,0.00,CLR,SKC,0.00,WeatherDisplay:10.37,2013-06-22 00:02:00,
2013-06-22 01:07:00,59.9,57.3,29.84,SE,135,3.8,8.1,91,0.00,CLR,SKC,0.00,WeatherDisplay:10.37,2013-06-22 00:07:00,
2013-06-22 01:12:00,59.4,57.0,29.84,SE,135,5.4,9.8,92,0.00,CLR,SKC,0.00,WeatherDisplay:10.37,2013-06-22 00:12:00,
2013-06-22 01:17:00,59.4,57.0,29.84,SE,135,5.4,9.8,92,0.00,CLR,SKC,0.00,WeatherDisplay:10.37,2013-06-22 00:17:00,
2013-06-22 01:22:00,58.8,56.5,29.83,SSE,158,1.6,10.4,92,0.00,CLR,SKC,0.00,WeatherDisplay:10.37,2013-06-22 00:22:00,
2013-06-22 01:27:00,58.8,56.5,29.83,SSE,158,1.6,10.4,92,0.00,CLR,SKC,0.00,WeatherDisplay:10.37,2013-06-22 00:27:00,
2013-06-22 01:32:00,58.1,55.5,29.84,SSW,202,3.1,8.1,91,0.00,CLR,SKC,0.00,WeatherDisplay:10.37,2013-06-22 00:32:00,
2013-06-22 01:37:00,58.1,55.5,29.84,SSW,202,3.1,8.1,91,0.00,CLR,SKC,0.00,WeatherDisplay:10.37,2013-06-22 00:37:00,
2013-06-22 01:42:00,57.7,55.1,29.84,SE,135,3.1,8.1,91,0.00,CLR,SKC,0.00,WeatherDisplay:10.37,2013-06-22 00:42:00,
2013-06-22 01:47:00,57.7,55.1,29.84,South,180,3.1,8.1,91,0.00,CLR,SKC,0.00,WeatherDisplay:10.37,2013-06-22 00:47:00,
2013-06-22 01:53:00,57.6,54.6,29.84,WNW,292,2.2,6.9,90,0.00,CLR,SKC,0.00,WeatherDisplay:10.37,2013-06-22 00:53:00,
2013-06-22 01:58:00,57.6,54.6,29.84,WNW,292,2.2,6.9,90,0.00,CLR,SKC,0.00,WeatherDisplay:10.37,2013-06-22 00:58:00,
2013-06-22 02:03:00,57.2,54.3,29.83,South,180,2.2,9.8,90,0.00,CLR,SKC,0.00,WeatherDisplay:10.37,2013-06-22 01:03:00,
2013-06-22 02:08:00,57.2,54.3,29.83,South,180,2.2,9.8,90,0.00,CLR,SKC,0.00,WeatherDisplay:10.37,2013-06-22 01:08:00,
2013-06-22 02:13:00,57.0,54.1,29.83,SSE,158,3.1,8.1,90,0.00,CLR,SKC,0.00,WeatherDisplay:10.37,2013-06-22 01:13:00,
2013-06-22 02:18:00,57.0,54.1,29.83,SSE,158,3.1,8.1,90,0.00,CLR,SKC,0.00,WeatherDisplay:10.37,2013-06-22 01:18:00,
2013-06-22 02:23:00,56.8,54.2,29.83,SE,135,3.1,6.9,91,0.00,CLR,SKC,0.00,WeatherDisplay:10.37,2013-06-22 01:23:00,
2013-06-22 02:28:00,56.8,54.2,29.82,East,90,2.2,5.8,91,0.00,CLR,SKC,0.00,WeatherDisplay:10.37,2013-06-22 01:28:00,
2013-06-22 02:33:00,56.7,54.1,29.83,SSE,158,2.2,10.4,91,0.00,CLR,SKC,0.00,WeatherDisplay:10.37,2013-06-22 01:33:00,
2013-06-22 02:38:00,56.7,54.1,29.82,NW,315,4.5,10.4,91,0.00,CLR,SKC,0.00,WeatherDisplay:10.37,2013-06-22 01:38:00,
2013-06-22 02:43:00,56.5,53.9,29.82,South,180,3.8,9.2,91,0.00,CLR,SKC,0.00,WeatherDisplay:10.37,2013-06-22 01:43:00,
2013-06-22 02:48:00,56.5,53.9,29.82,East,90,3.8,10.4,91,0.00,CLR,SKC,0.00,WeatherDisplay:10.37,2013-06-22 01:48:00,
2013-06-22 02:53:00,56.3,53.4,29.82,North,0,1.6,5.8,90,0.00,CLR,SKC,0.00,WeatherDisplay:10.37,2013-06-22 01:53:00,
2013-06-22 02:58:00,56.1,52.9,29.81,ESE,112,3.1,8.3,89,0.00,CLR,SKC,0.00,WeatherDisplay:10.37,2013-06-22 01:58:00,
2013-06-22 03:03:00,56.1,52.9,29.81,WSW,248,1.6,8.1,89,0.00,CLR,SKC,0.00,WeatherDisplay:10.37,2013-06-22 02:03:00,
2013-06-22 03:08:00,56.1,52.9,29.81,WSW,248,1.6,3.5,89,0.00,CLR,SKC,0.00,WeatherDisplay:10.37,2013-06-22 02:08:00,
2013-06-22 03:13:00,55.9,52.4,29.81,NNE,22,2.2,6.0,88,0.00,CLR,SKC,0.00,WeatherDisplay:10.37,2013-06-22 02:13:00,
2013-06-22 03:18:00,55.9,52.7,29.81,South,180,0.7,5.8,89,0.00,CLR,SKC,0.00,WeatherDisplay:10.37,2013-06-22 02:18:00,
2013-06-22 03:23:00,56.1,52.9,29.81,South,180,3.8,6.0,89,0.00,CLR,SKC,0.00,WeatherDisplay:10.37,2013-06-22 02:23:00,
2013-06-22 03:28:00,55.9,53.4,29.80,East,90,3.1,6.9,91,0.00,CLR,SKC,0.00,WeatherDisplay:10.37,2013-06-22 02:28:00,
2013-06-22 03:33:00,55.8,53.2,29.80,South,180,2.2,6.9,91,0.00,CLR,SKC,0.00,WeatherDisplay:10.37,2013-06-22 02:33:00,
2013-06-22 03:38:00,55.6,53.0,29.80,South,180,2.2,6.9,91,0.00,CLR,SKC,0.00,WeatherDisplay:10.37,2013-06-22 02:38:00,
2013-06-22 03:43:00,55.6,53.0,29.80,SE,135,2.2,8.1,91,0.00,CLR,SKC,0.00,WeatherDisplay:10.37,2013-06-22 02:43:00,
2013-06-22 03:48:00,55.2,52.9,29.80,South,180,0.7,5.8,92,0.00,CLR,SKC,0.00,WeatherDisplay:10.37,2013-06-22 02:48:00,
2013-06-22 03:53:00,55.2,53.2,29.80,WSW,248,2.2,6.9,93,0.00,CLR,SKC,0.00,WeatherDisplay:10.37,2013-06-22 02:53:00,
2013-06-22 03:58:00,55.0,53.1,29.80,South,180,0.7,6.9,93,0.00,CLR,SKC,0.00,WeatherDisplay:10.37,2013-06-22 02:58:00,
2013-06-22 04:03:00,55.2,53.2,29.80,NW,315,2.2,6.9,93,0.00,CLR,SKC,0.00,WeatherDisplay:10.37,2013-06-22 03:03:00,
2013-06-22 04:08:00,55.0,53.1,29.79,South,180,1.6,5.8,93,0.00,CLR,SKC,0.00,WeatherDisplay:10.37,2013-06-22 03:08:00,
2013-06-22 04:13:00,55.0,53.1,29.80,SE,135,1.6,3.8,93,0.00,CLR,SKC,0.00,WeatherDisplay:10.37,2013-06-22 03:13:00,
2013-06-22 04:18:00,54.7,53.3,29.80,WSW,248,1.6,3.8,95,0.00,CLR,SKC,0.00,WeatherDisplay:10.37,2013-06-22 03:18:00,
2013-06-22 04:23:00,54.7,53.3,29.80,WSW,248,2.2,3.8,95,0.00,CLR,SKC,0.00,WeatherDisplay:10.37,2013-06-22 03:23:00,
2013-06-22 04:28:00,54.5,53.4,29.80,WSW,248,2.2,6.9,96,0.01,RA,SKC,0.01,WeatherDisplay:10.37,2013-06-22 03:28:00,
2013-06-22 04:33:00,54.5,53.4,29.80,South,180,1.6,6.9,96,0.01,RA,SKC,0.01,WeatherDisplay:10.37,2013-06-22 03:33:00,
2013-06-22 04:38:00,54.1,53.6,29.79,South,180,0.7,5.8,98,0.01,RA,SKC,0.02,WeatherDisplay:10.37,2013-06-22 03:38:00,
2013-06-22 04:43:00,54.1,53.6,29.80,WSW,248,0.7,3.8,98,0.02,RA,SKC,0.02,WeatherDisplay:10.37,2013-06-22 03:43:00,
2013-06-22 04:48:00,53.8,53.8,29.79,South,180,2.2,5.8,100,0.02,RA,SKC,0.02,WeatherDisplay:10.37,2013-06-22 03:48:00,
2013-06-22 04:53:00,53.8,53.8,29.80,SE,135,3.1,6.9,100,0.02,RA,SKC,0.02,WeatherDisplay:10.37,2013-06-22 03:53:00,
2013-06-22 04:58:00,53.6,53.6,29.79,South,180,1.6,6.9,100,0.04,RA,SKC,0.04,WeatherDisplay:10.37,2013-06-22 03:58:00,
2013-06-22 05:01:00,53.6,53.6,29.79,SE,135,3.1,6.0,100,0.05,RA,SKC,0.05,WeatherDisplay:10.37,2013-06-22 04:01:00,
2013-06-22 05:02:00,53.6,53.6,29.79,SE,135,3.1,6.0,100,0.05,RA,SKC,0.05,WeatherDisplay:10.37,2013-06-22 04:02:00,
2013-06-22 05:07:00,53.6,53.6,29.79,SE,135,3.1,6.0,100,0.05,RA,SKC,0.05,WeatherDisplay:10.37,2013-06-22 04:07:00,
2013-06-22 05:12:00,53.4,53.4,29.78,SSE,158,1.6,4.6,100,0.06,RA,SKC,0.06,WeatherDisplay:10.37,2013-06-22 04:12:00,
2013-06-22 05:17:00,53.4,53.4,29.78,SSE,158,1.6,4.6,100,0.06,RA,SKC,0.06,WeatherDisplay:10.37,2013-06-22 04:17:00,
2013-06-22 05:22:00,53.4,53.4,29.77,SE,135,3.1,9.2,100,0.08,RA,SKC,0.08,WeatherDisplay:10.37,2013-06-22 04:22:00,
2013-06-22 05:27:00,53.4,53.4,29.77,SE,135,3.1,9.2,100,0.08,RA,SKC,0.08,WeatherDisplay:10.37,2013-06-22 04:27:00,
2013-06-22 05:32:00,53.4,53.4,29.77,South,180,2.2,10.7,100,0.09,RA,SKC,0.09,WeatherDisplay:10.37,2013-06-22 04:32:00,
2013-06-22 05:37:00,53.4,53.4,29.77,South,180,2.2,10.7,100,0.09,RA,SKC,0.09,WeatherDisplay:10.37,2013-06-22 04:37:00,
2013-06-22 05:42:00,53.4,53.4,29.77,SE,135,1.6,6.9,100,0.09,RA,SKC,0.09,WeatherDisplay:10.37,2013-06-22 04:42:00,
2013-06-22 05:47:00,53.4,53.4,29.77,SE,135,1.6,6.9,100,0.09,RA,SKC,0.09,WeatherDisplay:10.37,2013-06-22 04:47:00,
2013-06-22 05:52:00,53.4,53.4,29.76,WSW,248,3.8,8.1,100,0.11,RA,SKC,0.11,WeatherDisplay:10.37,2013-06-22 04:52:00,
2013-06-22 05:57:00,53.4,53.4,29.76,WSW,248,3.8,8.1,100,0.11,RA,SKC,0.11,WeatherDisplay:10.37,2013-06-22 04:57:00,
2013-06-22 06:02:00,53.2,53.2,29.76,South,180,2.2,8.1,100,0.12,RA,SKC,0.13,WeatherDisplay:10.37,2013-06-22 05:02:00,
2013-06-22 06:07:00,53.2,53.2,29.76,South,180,2.2,8.1,100,0.12,RA,SKC,0.13,WeatherDisplay:10.37,2013-06-22 05:07:00,
2013-06-22 06:12:00,53.1,53.1,29.75,South,180,4.5,15.0,100,0.13,RA,SKC,0.13,WeatherDisplay:10.37,2013-06-22 05:12:00,
2013-06-22 06:17:00,53.1,53.1,29.75,South,180,4.5,15.0,100,0.13,RA,SKC,0.13,WeatherDisplay:10.37,2013-06-22 05:17:00,
2013-06-22 06:22:00,53.2,53.2,29.75,SE,135,3.1,9.2,100,0.13,RA,SKC,0.13,WeatherDisplay:10.37,2013-06-22 05:22:00,
2013-06-22 06:27:00,53.2,53.2,29.75,SE,135,3.1,9.2,100,0.13,RA,SKC,0.13,WeatherDisplay:10.37,2013-06-22 05:27:00,
2013-06-22 06:32:00,53.2,53.2,29.75,South,180,4.5,9.2,100,0.13,,SKC,0.13,WeatherDisplay:10.37,2013-06-22 05:32:00,
2013-06-22 06:37:00,53.2,53.2,29.75,South,180,4.5,9.2,100,0.13,,SKC,0.13,WeatherDisplay:10.37,2013-06-22 05:37:00,
2013-06-22 06:42:00,53.4,53.4,29.75,SE,135,1.6,8.1,100,0.13,CLR,SKC,0.13,WeatherDisplay:10.37,2013-06-22 05:42:00,
2013-06-22 06:47:00,53.4,53.4,29.75,SE,135,1.6,8.1,100,0.13,CLR,SKC,0.13,WeatherDisplay:10.37,2013-06-22 05:47:00,
2013-06-22 06:52:00,53.6,53.6,29.74,South,180,3.1,10.4,100,0.14,RA,SKC,0.14,WeatherDisplay:10.37,2013-06-22 05:52:00,
2013-06-22 06:57:00,53.6,53.6,29.74,South,180,3.1,10.4,100,0.14,RA,SKC,0.14,WeatherDisplay:10.37,2013-06-22 05:57:00,
2013-06-22 07:02:00,53.6,53.6,29.75,SE,135,3.8,10.4,100,0.13,RA,SKC,0.14,WeatherDisplay:10.37,2013-06-22 06:02:00,
2013-06-22 07:07:00,53.6,53.6,29.75,SE,135,3.8,10.4,100,0.13,RA,SKC,0.14,WeatherDisplay:10.37,2013-06-22 06:07:00,
2013-06-22 07:12:00,53.8,53.8,29.74,South,180,0.0,3.8,100,0.13,RA,SKC,0.15,WeatherDisplay:10.37,2013-06-22 06:12:00,
2013-06-22 07:17:00,53.8,53.8,29.74,South,180,0.0,3.8,100,0.13,RA,SKC,0.15,WeatherDisplay:10.37,2013-06-22 06:17:00,
2013-06-22 07:22:00,54.0,54.0,29.74,South,180,3.1,10.7,100,0.13,RA,SKC,0.15,WeatherDisplay:10.37,2013-06-22 06:22:00,
2013-06-22 07:27:00,54.0,54.0,29.74,South,180,3.1,10.7,100,0.13,RA,SKC,0.15,WeatherDisplay:10.37,2013-06-22 06:27:00,
2013-06-22 07:32:00,54.1,54.1,29.73,South,180,4.5,8.1,100,0.11,RA,SKC,0.15,WeatherDisplay:10.37,2013-06-22 06:32:00,
2013-06-22 07:37:00,54.1,54.1,29.73,South,180,4.5,8.1,100,0.11,RA,SKC,0.15,WeatherDisplay:10.37,2013-06-22 06:37:00,
2013-06-22 07:42:00,54.3,54.3,29.73,South,180,3.1,11.5,100,0.09,CLR,SKC,0.15,WeatherDisplay:10.37,2013-06-22 06:42:00,
2013-06-22 07:47:00,54.3,54.3,29.73,South,180,3.1,11.5,100,0.09,CLR,SKC,0.15,WeatherDisplay:10.37,2013-06-22 06:47:00,
2013-06-22 07:52:00,54.5,54.5,29.73,South,180,3.8,8.1,100,0.07,CLR,SKC,0.15,WeatherDisplay:10.37,2013-06-22 06:52:00,
2013-06-22 07:57:00,54.5,54.5,29.73,South,180,3.8,8.1,100,0.07,CLR,SKC,0.15,WeatherDisplay:10.37,2013-06-22 06:57:00,
2013-06-22 08:02:00,54.7,54.7,29.73,SE,135,3.8,9.8,100,0.06,CLR,SKC,0.15,WeatherDisplay:10.37,2013-06-22 07:02:00,
2013-06-22 08:07:00,54.7,54.7,29.73,SE,135,3.8,9.8,100,0.06,CLR,SKC,0.15,WeatherDisplay:10.37,2013-06-22 07:07:00,
2013-06-22 08:12:00,54.9,54.9,29.73,SSE,158,3.8,8.1,100,0.06,CLR,SKC,0.15,WeatherDisplay:10.37,2013-06-22 07:12:00,
2013-06-22 08:17:00,54.9,54.9,29.73,SSE,158,3.8,8.1,100,0.06,CLR,SKC,0.15,WeatherDisplay:10.37,2013-06-22 07:17:00,
2013-06-22 08:22:00,55.0,55.0,29.72,South,180,3.8,7.6,100,0.05,CLR,SKC,0.15,WeatherDisplay:10.37,2013-06-22 07:22:00,
2013-06-22 08:27:00,55.0,55.0,29.72,South,180,3.8,7.6,100,0.05,CLR,SKC,0.15,WeatherDisplay:10.37,2013-06-22 07:27:00,
2013-06-22 08:32:00,55.0,55.0,29.72,South,180,4.5,9.2,100,0.04,CLR,SKC,0.15,WeatherDisplay:10.37,2013-06-22 07:32:00,
2013-06-22 08:38:00,55.0,55.0,29.72,South,180,4.5,9.2,100,0.04,CLR,SKC,0.15,WeatherDisplay:10.37,2013-06-22 07:38:00,
2013-06-22 08:43:00,55.2,55.2,29.72,South,180,3.1,12.7,100,0.02,CLR,SKC,0.15,WeatherDisplay:10.37,2013-06-22 07:43:00,
2013-06-22 08:48:00,55.2,55.2,29.72,SE,135,3.1,9.2,100,0.02,CLR,SKC,0.15,WeatherDisplay:10.37,2013-06-22 07:48:00,
2013-06-22 08:53:00,55.6,55.6,29.72,South,180,3.8,9.2,100,0.02,CLR,SKC,0.15,WeatherDisplay:10.37,2013-06-22 07:53:00,
2013-06-22 08:58:00,55.6,55.6,29.72,South,180,3.8,9.2,100,0.02,CLR,SKC,0.15,WeatherDisplay:10.37,2013-06-22 07:58:00,
2013-06-22 09:03:00,55.9,55.9,29.72,NNE,22,2.2,6.9,100,0.02,CLR,SKC,0.15,WeatherDisplay:10.37,2013-06-22 08:03:00,
2013-06-22 09:08:00,55.9,55.9,29.71,SSE,158,3.1,6.0,100,0.02,CLR,SKC,0.15,WeatherDisplay:10.37,2013-06-22 08:08:00,
2013-06-22 09:13:00,56.5,56.5,29.71,SE,135,4.5,10.4,100,0.02,CLR,SKC,0.15,WeatherDisplay:10.37,2013-06-22 08:13:00,
2013-06-22 09:18:00,56.5,56.5,29.71,SSE,158,3.1,10.4,100,0.02,CLR,SKC,0.15,WeatherDisplay:10.37,2013-06-22 08:18:00,
2013-06-22 09:23:00,56.7,56.7,29.70,South,180,1.6,6.0,100,0.01,CLR,SKC,0.15,WeatherDisplay:10.37,2013-06-22 08:23:00,
2013-06-22 09:28:00,56.8,56.8,29.71,WSW,248,1.6,5.8,100,0.01,CLR,SKC,0.15,WeatherDisplay:10.37,2013-06-22 08:28:00,
2013-06-22 09:33:00,57.0,57.0,29.70,South,180,3.8,6.9,100,0.01,CLR,SKC,0.15,WeatherDisplay:10.37,2013-06-22 08:33:00,
2013-06-22 09:38:00,57.0,57.0,29.70,SE,135,4.5,6.9,100,0.01,CLR,SKC,0.15,WeatherDisplay:10.37,2013-06-22 08:38:00,
2013-06-22 09:43:00,57.6,57.6,29.69,SE,135,3.8,7.6,100,0.00,CLR,SKC,0.15,WeatherDisplay:10.37,2013-06-22 08:43:00,
2013-06-22 09:48:00,57.6,57.6,29.69,SE,135,1.6,8.1,100,0.00,CLR,SKC,0.15,WeatherDisplay:10.37,2013-06-22 08:48:00,
2013-06-22 09:53:00,57.9,57.9,29.69,SE,135,3.1,6.9,100,0.00,CLR,SKC,0.15,WeatherDisplay:10.37,2013-06-22 08:53:00,
2013-06-22 09:58:00,57.9,57.9,29.69,WSW,248,3.1,6.9,100,0.00,CLR,SKC,0.15,WeatherDisplay:10.37,2013-06-22 08:58:00,
2013-06-22 10:03:00,58.1,58.1,29.69,South,180,3.8,8.3,100,0.00,CLR,SKC,0.15,WeatherDisplay:10.37,2013-06-22 09:03:00,
2013-06-22 10:08:00,58.6,58.6,29.69,ESE,112,1.6,8.1,100,0.00,CLR,SKC,0.15,WeatherDisplay:10.37,2013-06-22 09:08:00,
2013-06-22 10:13:00,58.8,58.8,29.68,South,180,3.1,8.1,100,0.00,CLR,SKC,0.15,WeatherDisplay:10.37,2013-06-22 09:13:00,
2013-06-22 10:18:00,58.8,58.8,29.68,SE,135,3.8,8.1,100,0.00,CLR,SKC,0.15,WeatherDisplay:10.37,2013-06-22 09:18:00,
2013-06-22 10:23:00,59.4,59.1,29.68,South,180,1.6,8.1,99,0.00,CLR,SKC,0.15,WeatherDisplay:10.37,2013-06-22 09:23:00,
2013-06-22 10:28:00,59.4,59.1,29.69,East,90,3.8,10.4,99,0.00,CLR,SKC,0.15,WeatherDisplay:10.37,2013-06-22 09:28:00,
2013-06-22 10:33:00,60.8,59.1,29.68,SE,135,4.5,9.2,94,0.00,CLR,SKC,0.15,WeatherDisplay:10.37,2013-06-22 09:33:00,
2013-06-22 10:38:00,62.2,59.3,29.68,North,0,3.1,9.2,90,0.00,CLR,SKC,0.15,WeatherDisplay:10.37,2013-06-22 09:38:00,
2013-06-22 10:43:00,62.4,59.1,29.68,WSW,248,3.1,5.8,89,0.00,CLR,SKC,0.15,WeatherDisplay:10.37,2013-06-22 09:43:00,
2013-06-22 10:48:00,62.4,59.1,29.68,WSW,248,3.1,5.8,89,0.00,CLR,SKC,0.15,WeatherDisplay:10.37,2013-06-22 09:48:00,
2013-06-22 10:53:00,63.3,58.7,29.68,SE,135,3.8,10.7,85,0.00,CLR,SKC,0.15,WeatherDisplay:10.37,2013-06-22 09:53:00,
2013-06-22 10:58:00,63.3,58.7,29.68,SE,135,3.8,10.7,85,0.00,CLR,SKC,0.15,WeatherDisplay:10.37,2013-06-22 09:58:00,
2013-06-22 11:03:00,62.6,57.0,29.68,East,90,4.5,11.4,82,0.00,CLR,SKC,0.15,WeatherDisplay:10.37,2013-06-22 10:03:00,
2013-06-22 11:08:00,62.2,57.0,29.68,East,90,3.1,11.5,83,0.00,CLR,SKC,0.15,WeatherDisplay:10.37,2013-06-22 10:08:00,
2013-06-22 11:13:00,62.2,57.0,29.67,East,90,1.6,8.1,83,0.00,CLR,SKC,0.15,WeatherDisplay:10.37,2013-06-22 10:13:00,
2013-06-22 11:18:00,62.2,57.0,29.68,South,180,3.1,8.1,83,0.00,CLR,SKC,0.15,WeatherDisplay:10.37,2013-06-22 10:18:00,
2013-06-22 11:23:00,62.2,57.0,29.68,South,180,1.6,8.1,83,0.00,CLR,SKC,0.15,WeatherDisplay:10.37,2013-06-22 10:23:00,
2013-06-22 11:28:00,62.2,56.3,29.68,WSW,248,2.2,9.2,81,0.00,CLR,SKC,0.15,WeatherDisplay:10.37,2013-06-22 10:28:00,
2013-06-22 11:33:00,62.2,56.3,29.67,SE,135,2.2,10.4,81,0.00,CLR,SKC,0.15,WeatherDisplay:10.37,2013-06-22 10:33:00,
2013-06-22 11:38:00,62.4,56.5,29.67,SE,135,1.6,10.4,81,0.00,CLR,SKC,0.15,WeatherDisplay:10.37,2013-06-22 10:38:00,
2013-06-22 11:43:00,62.4,56.5,29.67,South,180,6.0,9.8,81,0.00,CLR,SKC,0.15,WeatherDisplay:10.37,2013-06-22 10:43:00,
2013-06-22 11:48:00,62.2,56.3,29.68,SE,135,0.7,10.4,81,0.00,CLR,SKC,0.15,WeatherDisplay:10.37,2013-06-22 10:48:00,
2013-06-22 11:53:00,62.2,56.3,29.68,SE,135,2.2,10.4,81,0.00,CLR,SKC,0.15,WeatherDisplay:10.37,2013-06-22 10:53:00,
2013-06-22 11:58:00,62.2,56.0,29.67,NE,45,2.2,8.1,80,0.00,CLR,SKC,0.15,WeatherDisplay:10.37,2013-06-22 10:58:00,
2013-06-22 12:03:00,62.2,56.0,29.68,NE,45,5.4,12.7,80,0.00,CLR,SKC,0.15,WeatherDisplay:10.37,2013-06-22 11:03:00,
2013-06-22 12:08:00,62.2,56.3,29.67,East,90,4.5,10.7,81,0.00,CLR,SKC,0.15,WeatherDisplay:10.37,2013-06-22 11:08:00,
2013-06-22 12:13:00,62.2,56.7,29.67,South,180,2.2,10.4,82,0.00,CLR,SKC,0.15,WeatherDisplay:10.37,2013-06-22 11:13:00,
2013-06-22 12:18:00,63.0,56.7,29.67,WNW,292,0.7,8.3,80,0.00,CLR,SKC,0.15,WeatherDisplay:10.37,2013-06-22 11:18:00,
2013-06-22 12:23:00,63.1,56.5,29.67,South,180,1.6,8.1,79,0.00,CLR,SKC,0.15,WeatherDisplay:10.37,2013-06-22 11:23:00,
2013-06-22 12:28:00,64.0,56.7,29.67,West,270,3.1,7.6,77,0.00,CLR,SKC,0.15,WeatherDisplay:10.37,2013-06-22 11:28:00,
2013-06-22 12:33:00,63.9,56.5,29.67,South,180,3.1,8.1,77,0.00,CLR,SKC,0.15,WeatherDisplay:10.37,2013-06-22 11:33:00,
2013-06-22 12:38:00,64.8,57.0,29.66,NW,315,3.1,9.2,76,0.00,CLR,SKC,0.15,WeatherDisplay:10.37,2013-06-22 11:38:00,
2013-06-22 12:43:00,64.8,56.6,29.66,NE,45,5.4,10.7,75,0.00,CLR,SKC,0.15,WeatherDisplay:10.37,2013-06-22 11:43:00,
2013-06-22 12:48:00,64.8,56.6,29.66,North,0,4.5,17.3,75,0.00,CLR,SKC,0.15,WeatherDisplay:10.37,2013-06-22 11:48:00,
2013-06-22 12:53:00,64.6,56.5,29.66,NW,315,3.1,9.2,75,0.00,CLR,SKC,0.15,WeatherDisplay:10.37,2013-06-22 11:53:00,
2013-06-22 12:58:00,63.7,56.7,29.66,NW,315,1.6,9.2,78,0.00,CLR,SKC,0.15,WeatherDisplay:10.37,2013-06-22 11:58:00,
2013-06-22 13:03:00,63.5,56.5,29.66,NW,315,3.1,6.9,78,0.00,CLR,SKC,0.15,WeatherDisplay:10.37,2013-06-22 12:03:00,
2013-06-22 13:08:00,64.2,56.9,29.66,SE,135,2.2,10.4,77,0.00,CLR,SKC,0.15,WeatherDisplay:10.37,2013-06-22 12:08:00,
2013-06-22 13:13:00,64.4,56.7,29.67,NW,315,1.6,10.4,76,0.00,CLR,SKC,0.15,WeatherDisplay:10.37,2013-06-22 12:13:00,
2013-06-22 13:18:00,65.3,56.0,29.66,West,270,4.5,8.3,72,0.00,CLR,SKC,0.15,WeatherDisplay:10.37,2013-06-22 12:18:00,
2013-06-22 13:23:00,65.3,56.0,29.66,West,270,4.5,8.3,72,0.00,CLR,SKC,0.15,WeatherDisplay:10.37,2013-06-22 12:23:00,
2013-06-22 13:28:00,65.1,55.9,29.65,NE,45,4.5,14.5,72,0.00,CLR,SKC,0.15,WeatherDisplay:10.37,2013-06-22 12:28:00,
2013-06-22 13:34:00,64.9,56.1,29.65,SE,135,1.6,15.0,73,0.00,CLR,SKC,0.15,WeatherDisplay:10.37,2013-06-22 12:34:00,
2013-06-22 13:39:00,64.6,55.7,29.66,East,90,3.8,10.7,73,0.00,CLR,SKC,0.15,WeatherDisplay:10.37,2013-06-22 12:39:00,
2013-06-22 13:44:00,64.6,55.3,29.65,WSW,248,2.2,11.5,72,0.00,CLR,SKC,0.15,WeatherDisplay:10.37,2013-06-22 12:44:00,
2013-06-22 13:49:00,64.4,55.6,29.66,SE,135,3.8,11.5,73,0.00,CLR,SKC,0.15,WeatherDisplay:10.37,2013-06-22 12:49:00,
2013-06-22 13:54:00,64.4,55.6,29.66,North,0,2.2,10.4,73,0.00,CLR,SKC,0.15,WeatherDisplay:10.37,2013-06-22 12:54:00,
2013-06-22 13:59:00,63.9,55.8,29.66,SE,135,3.1,6.0,75,0.00,CLR,SKC,0.15,WeatherDisplay:10.37,2013-06-22 12:59:00,
2013-06-22 14:04:00,63.9,55.8,29.66,SE,135,1.6,10.7,75,0.00,CLR,SKC,0.15,WeatherDisplay:10.37,2013-06-22 13:04:00,
2013-06-22 14:09:00,64.2,55.4,29.66,NE,45,3.1,7.6,73,0.00,CLR,SKC,0.15,WeatherDisplay:10.37,2013-06-22 13:09:00,
2013-06-22 14:14:00,64.2,55.4,29.66,North,0,3.1,8.1,73,0.00,CLR,SKC,0.15,WeatherDisplay:10.37,2013-06-22 13:14:00,
2013-06-22 14:19:00,64.2,55.4,29.66,West,270,2.2,6.0,73,0.00,CLR,SKC,0.15,WeatherDisplay:10.37,2013-06-22 13:19:00,
2013-06-22 14:24:00,64.2,55.4,29.66,NW,315,4.5,9.2,73,0.00,CLR,SKC,0.15,WeatherDisplay:10.37,2013-06-22 13:24:00,
2013-06-22 14:29:00,63.3,55.3,29.66,SSW,202,1.6,6.9,75,0.00,CLR,SKC,0.15,WeatherDisplay:10.37,2013-06-22 13:29:00,
2013-06-22 14:34:00,63.3,55.3,29.67,South,180,3.1,6.9,75,0.00,CLR,SKC,0.15,WeatherDisplay:10.37,2013-06-22 13:34:00,
2013-06-22 14:39:00,62.4,56.2,29.67,South,180,4.5,8.3,80,0.00,CLR,SKC,0.15,WeatherDisplay:10.37,2013-06-22 13:39:00,
2013-06-22 14:44:00,62.4,56.2,29.67,South,180,4.5,8.3,80,0.00,CLR,SKC,0.15,WeatherDisplay:10.37,2013-06-22 13:44:00,
2013-06-22 14:49:00,61.5,55.6,29.67,SSE,158,2.2,8.1,81,0.00,CLR,SKC,0.15,WeatherDisplay:10.37,2013-06-22 13:49:00,
2013-06-22 14:54:00,61.5,55.6,29.67,NW,315,3.1,8.1,81,0.00,CLR,SKC,0.15,WeatherDisplay:10.37,2013-06-22 13:54:00,
2013-06-22 14:59:00,62.2,54.9,29.67,WNW,292,3.8,8.1,77,0.00,CLR,SKC,0.15,WeatherDisplay:10.37,2013-06-22 13:59:00,
2013-06-22 15:04:00,62.4,55.1,29.67,NW,315,3.8,8.1,77,0.00,CLR,SKC,0.15,WeatherDisplay:10.37,2013-06-22 14:04:00,
2013-06-22 15:09:00,63.5,55.1,29.66,SE,135,2.2,5.8,74,0.00,CLR,SKC,0.15,WeatherDisplay:10.37,2013-06-22 14:09:00,
2013-06-22 15:14:00,63.5,55.1,29.66,SE,135,2.2,5.8,74,0.00,CLR,SKC,0.15,WeatherDisplay:10.37,2013-06-22 14:14:00,
2013-06-22 15:19:00,63.0,55.3,29.67,North,0,4.5,8.1,76,0.00,CLR,SKC,0.15,WeatherDisplay:10.37,2013-06-22 14:19:00,
2013-06-22 15:24:00,62.8,55.1,29.67,WNW,292,3.1,6.9,76,0.00,CLR,SKC,0.15,WeatherDisplay:10.37,2013-06-22 14:24:00,
2013-06-22 15:29:00,61.7,56.1,29.68,East,90,1.6,5.8,82,0.00,CLR,SKC,0.15,WeatherDisplay:10.37,2013-06-22 14:29:00,
2013-06-22 15:34:00,61.7,56.1,29.68,NNW,338,3.8,7.6,82,0.00,CLR,SKC,0.15,WeatherDisplay:10.37,2013-06-22 14:34:00,
2013-06-22 15:39:00,60.6,56.7,29.67,NE,45,1.6,8.1,87,0.00,CLR,SKC,0.15,WeatherDisplay:10.37,2013-06-22 14:39:00,
2013-06-22 15:44:00,60.8,57.2,29.67,East,90,1.6,8.1,88,0.00,CLR,SKC,0.15,WeatherDisplay:10.37,2013-06-22 14:44:00,
2013-06-22 15:49:00,62.6,58.0,29.67,South,180,2.2,5.8,85,0.00,CLR,SKC,0.15,WeatherDisplay:10.37,2013-06-22 14:49:00,
2013-06-22 15:54:00,63.0,58.0,29.67,East,90,2.2,9.2,84,0.00,CLR,SKC,0.15,WeatherDisplay:10.37,2013-06-22 14:54:00,
2013-06-22 15:59:00,64.6,57.2,29.67,East,90,5.4,12.7,77,0.00,CLR,SKC,0.15,WeatherDisplay:10.37,2013-06-22 14:59:00,
2013-06-22 16:04:00,64.6,57.2,29.67,East,90,5.4,12.7,77,0.00,CLR,SKC,0.15,WeatherDisplay:10.37,2013-06-22 15:04:00,
2013-06-22 16:09:00,63.7,55.6,29.67,SE,135,4.5,13.0,75,0.00,CLR,SKC,0.15,WeatherDisplay:10.37,2013-06-22 15:09:00,
2013-06-22 16:14:00,63.7,55.6,29.67,SE,135,4.5,13.0,75,0.00,CLR,SKC,0.15,WeatherDisplay:10.37,2013-06-22 15:14:00,
2013-06-22 16:19:00,63.5,55.8,29.66,East,90,3.8,6.9,76,0.00,CLR,SKC,0.15,WeatherDisplay:10.37,2013-06-22 15:19:00,
2013-06-22 16:24:00,63.5,55.8,29.66,East,90,3.8,6.9,76,0.00,CLR,SKC,0.15,WeatherDisplay:10.37,2013-06-22 15:24:00,
2013-06-22 16:29:00,62.6,55.3,29.67,NW,315,5.4,9.2,77,0.00,CLR,SKC,0.15,WeatherDisplay:10.37,2013-06-22 15:29:00,
2013-06-22 16:34:00,62.6,55.3,29.67,NW,315,5.4,9.2,77,0.00,CLR,SKC,0.15,WeatherDisplay:10.37,2013-06-22 15:34:00,
2013-06-22 16:39:00,62.1,55.1,29.67,SSW,202,3.1,6.9,78,0.00,CLR,SKC,0.15,WeatherDisplay:10.37,2013-06-22 15:39:00,
2013-06-22 16:40:00,58.3,53.8,29.67,East,98,1.0,5.0,85,0.00,RA,SKC,0.15,WeatherDisplay:10.37,2013-06-22 15:40:00,
2013-06-22 16:44:00,62.1,55.1,29.67,SSW,202,3.1,6.9,78,0.00,CLR,SKC,0.15,WeatherDisplay:10.37,2013-06-22 15:44:00,
2013-06-22 16:45:00,58.3,53.8,29.66,SSE,151,2.0,8.0,85,0.00,RA,SKC,0.15,WeatherDisplay:10.37,2013-06-22 15:45:00,
2013-06-22 16:49:00,62.1,54.8,29.66,WSW,248,2.2,12.7,77,0.00,CLR,SKC,0.15,WeatherDisplay:10.37,2013-06-22 15:49:00,
2013-06-22 16:50:00,58.1,53.9,29.67,SSE,167,5.0,11.0,86,0.00,CLR,SKC,0.15,WeatherDisplay:10.37,2013-06-22 15:50:00,
2013-06-22 16:54:00,62.1,54.8,29.66,WSW,248,2.2,12.7,77,0.00,CLR,SKC,0.15,WeatherDisplay:10.37,2013-06-22 15:54:00,
2013-06-22 16:55:00,58.1,53.9,29.67,ENE,65,2.0,11.0,86,0.00,CLR,SKC,0.15,WeatherDisplay:10.37,2013-06-22 15:55:00,
2013-06-22 16:59:00,63.3,55.6,29.67,East,90,1.6,9.2,76,0.00,CLR,SKC,0.15,WeatherDisplay:10.37,2013-06-22 15:59:00,
2013-06-22 17:04:00,63.3,55.6,29.67,East,90,1.6,9.2,76,0.00,CLR,SKC,0.15,WeatherDisplay:10.37,2013-06-22 16:04:00,
2013-06-22 17:09:00,63.3,55.6,29.67,SE,135,2.2,10.4,76,0.00,CLR,SKC,0.15,WeatherDisplay:10.37,2013-06-22 16:09:00,
2013-06-22 17:14:00,63.3,55.6,29.67,SE,135,2.2,10.4,76,0.00,CLR,SKC,0.15,WeatherDisplay:10.37,2013-06-22 16:14:00,
2013-06-22 17:20:00,63.1,55.1,29.67,NW,315,3.1,8.3,75,0.00,CLR,SKC,0.15,WeatherDisplay:10.37,2013-06-22 16:20:00,
2013-06-22 17:25:00,63.1,55.1,29.67,NW,315,3.1,8.3,75,0.00,CLR,SKC,0.15,WeatherDisplay:10.37,2013-06-22 16:25:00,
2013-06-22 17:30:00,63.1,55.4,29.66,North,0,3.8,6.9,76,0.00,CLR,SKC,0.15,WeatherDisplay:10.37,2013-06-22 16:30:00,
2013-06-22 17:35:00,63.1,55.4,29.66,North,0,3.8,6.9,76,0.00,CLR,SKC,0.15,WeatherDisplay:10.37,2013-06-22 16:35:00,
2013-06-22 17:40:00,61.9,55.3,29.66,SE,135,2.2,6.9,79,0.00,CLR,SKC,0.15,WeatherDisplay:10.37,2013-06-22 16:40:00,
2013-06-22 17:45:00,61.9,55.3,29.66,SE,135,2.2,6.9,79,0.00,CLR,SKC,0.15,WeatherDisplay:10.37,2013-06-22 16:45:00,
2013-06-22 17:50:00,61.2,54.9,29.66,East,90,2.2,12.7,80,0.00,CLR,SKC,0.15,WeatherDisplay:10.37,2013-06-22 16:50:00,
2013-06-22 17:55:00,61.2,54.9,29.66,East,90,2.2,12.7,80,0.00,CLR,SKC,0.15,WeatherDisplay:10.37,2013-06-22 16:55:00,
2013-06-22 18:00:00,61.2,54.9,29.66,SE,135,3.1,6.9,80,0.00,CLR,SKC,0.15,WeatherDisplay:10.37,2013-06-22 17:00:00,
2013-06-22 18:05:00,61.2,54.9,29.66,SE,135,3.1,6.9,80,0.00,CLR,SKC,0.15,WeatherDisplay:10.37,2013-06-22 17:05:00,
2013-06-22 18:10:00,62.1,55.1,29.66,NW,315,3.1,7.6,78,0.00,CLR,SKC,0.15,WeatherDisplay:10.37,2013-06-22 17:10:00,
2013-06-22 18:15:00,62.1,55.1,29.66,NW,315,3.1,7.6,78,0.00,CLR,SKC,0.15,WeatherDisplay:10.37,2013-06-22 17:15:00,
2013-06-22 18:20:00,61.9,55.3,29.66,NW,315,1.6,5.8,79,0.00,CLR,SKC,0.15,WeatherDisplay:10.37,2013-06-22 17:20:00,
2013-06-22 18:25:00,61.9,55.3,29.66,NW,315,1.6,5.8,79,0.00,CLR,SKC,0.15,WeatherDisplay:10.37,2013-06-22 17:25:00,
2013-06-22 18:30:00,61.2,54.6,29.66,SSW,193,2.0,7.0,79,0.00,CLR,SKC,0.15,WeatherDisplay:10.37,2013-06-22 17:30:00,
2013-06-22 18:35:00,61.2,54.6,29.66,SE,135,2.2,6.9,79,0.00,CLR,SKC,0.15,WeatherDisplay:10.37,2013-06-22 17:35:00,
2013-06-22 18:40:00,61.5,54.9,29.66,SE,135,2.2,10.4,79,0.00,CLR,SKC,0.15,WeatherDisplay:10.37,2013-06-22 17:40:00,
2013-06-22 18:45:00,61.5,54.9,29.66,SE,135,2.2,10.4,79,0.00,CLR,SKC,0.15,WeatherDisplay:10.37,2013-06-22 17:45:00,
2013-06-22 18:50:00,61.0,54.8,29.66,South,180,3.8,8.3,80,0.00,CLR,SKC,0.15,WeatherDisplay:10.37,2013-06-22 17:50:00,
2013-06-22 18:55:00,61.0,54.8,29.66,South,180,3.8,8.3,80,0.00,CLR,SKC,0.15,WeatherDisplay:10.37,2013-06-22 17:55:00,
2013-06-22 19:00:00,60.4,54.6,29.66,South,180,3.1,8.1,81,0.00,CLR,SKC,0.15,WeatherDisplay:10.37,2013-06-22 18:00:00,
2013-06-22 19:05:00,60.4,54.6,29.66,South,180,3.1,8.1,81,0.00,CLR,SKC,0.15,WeatherDisplay:10.37,2013-06-22 18:05:00,
2013-06-22 19:10:00,60.3,54.7,29.66,North,0,3.8,6.0,82,0.00,CLR,SKC,0.15,WeatherDisplay:10.37,2013-06-22 18:10:00,
2013-06-22 19:15:00,60.3,54.7,29.66,North,0,3.8,6.0,82,0.00,CLR,SKC,0.15,WeatherDisplay:10.37,2013-06-22 18:15:00,
2013-06-22 19:20:00,60.3,54.4,29.67,South,180,4.5,9.8,81,0.00,CLR,SKC,0.15,WeatherDisplay:10.37,2013-06-22 18:20:00,
2013-06-22 19:25:00,60.3,54.4,29.67,South,180,4.5,9.8,81,0.00,CLR,SKC,0.15,WeatherDisplay:10.37,2013-06-22 18:25:00,
2013-06-22 19:30:00,60.3,54.4,29.66,South,180,2.2,3.8,81,0.00,CLR,SKC,0.15,WeatherDisplay:10.37,2013-06-22 18:30:00,
2013-06-22 19:35:00,60.3,54.4,29.66,South,180,2.2,3.8,81,0.00,CLR,SKC,0.15,WeatherDisplay:10.37,2013-06-22 18:35:00,
2013-06-22 19:39:00,60.4,54.6,29.66,SE,135,2.2,6.0,81,0.00,CLR,SKC,0.15,WeatherDisplay:10.37,2013-06-22 18:39:00,
2013-06-22 19:40:00,60.4,54.6,29.66,SE,135,2.2,6.0,81,0.00,CLR,SKC,0.15,WeatherDisplay:10.37,2013-06-22 18:40:00,
2013-06-22 19:45:00,60.4,54.6,29.66,SE,135,2.2,6.0,81,0.00,CLR,SKC,0.15,WeatherDisplay:10.37,2013-06-22 18:45:00,
2013-06-22 19:54:00,60.3,54.4,29.66,South,180,1.6,5.8,81,0.00,CLR,SKC,0.15,WeatherDisplay:10.37,2013-06-22 18:54:00,
2013-06-22 19:59:00,60.3,54.4,29.66,SE,135,3.1,9.2,81,0.00,CLR,SKC,0.15,WeatherDisplay:10.37,2013-06-22 18:59:00,
2013-06-22 20:04:00,60.3,54.4,29.66,SE,135,3.1,9.2,81,0.00,CLR,SKC,0.15,WeatherDisplay:10.37,2013-06-22 19:04:00,
2013-06-22 20:09:00,59.9,54.1,29.66,WSW,248,2.2,8.1,81,0.00,CLR,SKC,0.15,WeatherDisplay:10.37,2013-06-22 19:09:00,
2013-06-22 20:15:00,59.9,54.1,29.66,WSW,248,2.2,8.1,81,0.00,CLR,SKC,0.15,WeatherDisplay:10.37,2013-06-22 19:15:00,
2013-06-22 20:20:00,59.5,54.0,29.66,South,180,3.1,9.2,82,0.00,CLR,SKC,0.15,WeatherDisplay:10.37,2013-06-22 19:20:00,
2013-06-22 20:25:00,59.5,54.0,29.66,South,180,3.1,9.2,82,0.00,CLR,SKC,0.15,WeatherDisplay:10.37,2013-06-22 19:25:00,
2013-06-22 20:30:00,59.4,54.2,29.66,SE,135,0.7,11.5,83,0.00,CLR,SKC,0.15,WeatherDisplay:10.37,2013-06-22 19:30:00,
2013-06-22 20:35:00,59.4,54.2,29.66,SE,135,0.7,11.5,83,0.00,CLR,SKC,0.15,WeatherDisplay:10.37,2013-06-22 19:35:00,
2013-06-22 20:40:00,59.0,53.8,29.66,ENE,68,3.1,8.1,83,0.00,CLR,SKC,0.15,WeatherDisplay:10.37,2013-06-22 19:40:00,
2013-06-22 20:45:00,59.0,53.8,29.66,ENE,68,3.1,8.1,83,0.00,CLR,SKC,0.15,WeatherDisplay:10.37,2013-06-22 19:45:00,
2013-06-22 20:50:00,59.0,53.8,29.66,South,180,3.1,8.1,83,0.00,CLR,SKC,0.15,WeatherDisplay:10.37,2013-06-22 19:50:00,
2013-06-22 20:55:00,59.0,53.8,29.66,South,180,3.1,8.1,83,0.00,CLR,SKC,0.15,WeatherDisplay:10.37,2013-06-22 19:55:00,
2013-06-22 21:00:00,58.8,53.7,29.66,SE,135,3.1,8.1,83,0.00,CLR,SKC,0.15,WeatherDisplay:10.37,2013-06-22 20:00:00,
2013-06-22 21:05:00,58.8,53.7,29.66,SE,135,3.1,8.1,83,0.00,CLR,SKC,0.15,WeatherDisplay:10.37,2013-06-22 20:05:00,
2013-06-22 21:10:00,58.6,53.5,29.66,SSW,202,3.8,8.1,83,0.00,CLR,SKC,0.15,WeatherDisplay:10.37,2013-06-22 20:10:00,
2013-06-22 21:15:00,58.6,53.5,29.66,SSW,202,3.8,8.1,83,0.00,CLR,SKC,0.15,WeatherDisplay:10.37,2013-06-22 20:15:00,
2013-06-22 21:20:00,58.6,53.8,29.67,SE,135,2.2,8.1,84,0.00,CLR,SKC,0.15,WeatherDisplay:10.37,2013-06-22 20:20:00,
2013-06-22 21:25:00,58.6,53.8,29.67,SE,135,2.2,8.1,84,0.00,CLR,SKC,0.15,WeatherDisplay:10.37,2013-06-22 20:25:00,
2013-06-22 21:30:00,58.5,53.6,29.67,SE,135,2.2,8.1,84,0.00,CLR,SKC,0.15,WeatherDisplay:10.37,2013-06-22 20:30:00,
2013-06-22 21:35:00,58.5,53.6,29.67,SE,135,2.2,8.1,84,0.00,CLR,SKC,0.15,WeatherDisplay:10.37,2013-06-22 20:35:00,
2013-06-22 21:40:00,58.5,53.6,29.67,East,90,3.8,9.2,84,0.00,CLR,SKC,0.15,WeatherDisplay:10.37,2013-06-22 20:40:00,
2013-06-22 21:45:00,58.5,53.6,29.67,East,90,3.8,9.2,84,0.00,CLR,SKC,0.15,WeatherDisplay:10.37,2013-06-22 20:45:00,
2013-06-22 21:59:00,58.1,53.9,29.67,SE,135,3.1,10.7,86,0.00,CLR,SKC,0.15,WeatherDisplay:10.37,2013-06-22 20:59:00,
2013-06-22 22:04:00,58.1,53.9,29.67,SE,135,3.1,10.7,86,0.00,CLR,SKC,0.15,WeatherDisplay:10.37,2013-06-22 21:04:00,
2013-06-22 22:09:00,58.1,53.9,29.67,SSE,158,3.1,9.2,86,0.00,CLR,SKC,0.15,WeatherDisplay:10.37,2013-06-22 21:09:00,
2013-06-22 22:14:00,58.1,53.9,29.67,South,180,2.2,9.2,86,0.00,CLR,SKC,0.15,WeatherDisplay:10.37,2013-06-22 21:14:00,
2013-06-22 22:19:00,57.9,54.1,29.67,NW,315,2.2,6.0,87,0.00,CLR,SKC,0.15,WeatherDisplay:10.37,2013-06-22 21:19:00,
2013-06-22 22:24:00,57.9,54.1,29.67,South,180,2.2,7.6,87,0.00,CLR,SKC,0.15,WeatherDisplay:10.37,2013-06-22 21:24:00,
2013-06-22 22:29:00,57.4,54.8,29.67,NW,315,1.6,8.1,91,0.01,RA,SKC,0.17,WeatherDisplay:10.37,2013-06-22 21:29:00,
2013-06-22 22:34:00,57.4,54.8,29.67,NE,45,2.2,8.1,91,0.01,RA,SKC,0.17,WeatherDisplay:10.37,2013-06-22 21:34:00,
2013-06-22 22:39:00,56.5,55.4,29.66,East,90,0.7,5.8,96,0.01,RA,SKC,0.17,WeatherDisplay:10.37,2013-06-22 21:39:00,
2013-06-22 22:44:00,56.5,55.4,29.67,NE,45,1.6,5.8,96,0.01,RA,SKC,0.17,WeatherDisplay:10.37,2013-06-22 21:44:00,
2013-06-22 22:49:00,56.1,55.6,29.67,West,270,0.7,5.8,98,0.01,RA,SKC,0.17,WeatherDisplay:10.37,2013-06-22 21:49:00,
2013-06-22 22:54:00,56.1,55.6,29.67,West,270,0.7,5.8,98,0.01,RA,SKC,0.17,WeatherDisplay:10.37,2013-06-22 21:54:00,
2013-06-22 22:59:00,55.9,55.4,29.67,WSW,248,0.0,4.6,98,0.01,,SKC,0.17,WeatherDisplay:10.37,2013-06-22 21:59:00,
2013-06-22 23:04:00,55.9,55.4,29.67,WSW,248,0.0,4.6,98,0.01,,SKC,0.17,WeatherDisplay:10.37,2013-06-22 22:04:00,
2013-06-22 23:09:00,55.9,55.7,29.67,SE,135,0.0,2.3,99,0.01,CLR,SKC,0.17,WeatherDisplay:10.37,2013-06-22 22:09:00,
2013-06-22 23:14:00,55.9,55.7,29.67,SE,135,0.0,2.3,99,0.01,CLR,SKC,0.17,WeatherDisplay:10.37,2013-06-22 22:14:00,
2013-06-22 23:19:00,56.1,55.8,29.67,East,90,0.7,3.5,99,0.01,CLR,SKC,0.17,WeatherDisplay:10.37,2013-06-22 22:19:00,
2013-06-22 23:24:00,56.1,55.8,29.67,East,90,0.7,3.5,99,0.01,CLR,SKC,0.17,WeatherDisplay:10.37,2013-06-22 22:24:00,
2013-06-22 23:29:00,56.1,55.6,29.66,WSW,248,0.7,6.9,98,0.01,CLR,SKC,0.17,WeatherDisplay:10.37,2013-06-22 22:29:00,
2013-06-22 23:34:00,56.1,55.6,29.66,WSW,248,0.7,6.9,98,0.01,CLR,SKC,0.17,WeatherDisplay:10.37,2013-06-22 22:34:00,
2013-06-22 23:39:00,56.3,55.2,29.66,SE,135,0.7,4.6,96,0.01,CLR,SKC,0.17,WeatherDisplay:10.37,2013-06-22 22:39:00,
2013-06-22 23:44:00,56.3,55.2,29.66,SE,135,0.7,4.6,96,0.01,CLR,SKC,0.17,WeatherDisplay:10.37,2013-06-22 22:44:00,
2013-06-22 23:49:00,56.5,54.8,29.66,NE,45,2.2,5.8,94,0.01,CLR,SKC,0.17,WeatherDisplay:10.37,2013-06-22 22:49:00,
2013-06-22 23:54:00,56.5,54.8,29.66,NE,45,2.2,5.8,94,0.01,CLR,SKC,0.17,WeatherDisplay:10.37,2013-06-22 22:54:00,
2013-06-22 23:59:00,56.5,54.8,29.66,NE,45,0.7,5.8,94,0.01,CLR,SKC,0.17,WeatherDisplay:10.37,2013-06-22 22:59:00,